Airfield :
LOGIN :

Register | Disclaimer

   EN    FR    IT 

 










Legend :    VFR   Marginal VFR   IFR   Intensive IFR   Very Intensive IFR
Visi :
Ceiling :
>= 8 km
>= 3000ft
5 to 8 km
1000 to 3000 ft
1500m to 5 km
500 to 1000 ft
800 to 1500m
200 to 500 ft
< 800m
< 200 ft
Symbols :   Thunderstorms  Fog  Heavy snow  Heavy precipitations  Wind > 20 kt
SIGMETs :     Misc.  Thunderstorms  Icing  Turbulence  Mountain Waves  Volcanic Ashes






- Airport Elevation : 135 ft
- IATA code : EDI


EGPH - Edinburgh

CURRENT METAR :
  • 302150Z 25005KT 9999 -RA BKN028 10/09 Q0996

EXPIRED METARs :
  • 302120Z 24007KT 9999 BKN021 11/09 Q0997
  • 302050Z 25006KT 9999 FEW020 BKN035 11/09 Q0997
  • 302020Z 25006KT 9999 BKN030 11/09 Q0997
  • 301950Z 25008KT 9999 BKN026 11/10 Q0997
  • 301920Z 24008KT 9999 FEW011 BKN029 11/10 Q0997

TAF TAF EGPH
Valid from the 30 at 18:00 until the 01 at 18:00 UTC


301701Z 3018/0118 24007KT 9999 SCT045
TEMPO 3018/0109 6000 RA SHRA BKN010
PROB30
TEMPO 0102/0109 3000 RADZ BKN006
PROB30
TEMPO 0109/0111 6000 -RADZ BKN012
PROB30
TEMPO 0112/0118 7000 SHRA
ATIS : +44 131 339 2823



MET'MAP, your aeronautical weather chart ! - Copyright ORBIFLY December 2007 - Disclaimer

ORBIFLY MET'MAP TEAM :

Programming & Development : Alexandra Zaïnal
Concept & original design : Baudouin d'Aumeries
Assistance for programming : Marc-Olivier Méhu
Technical & hardware support : Manuel Goepfert

Contact : metmap@orbifly.com




SOURCES & CREDITS :

   NOAA